Time;durP1;ratioP1;P1;durP2;ratioP2;P2;SDS_P1;SDS_P2;PMS_P1;PMS_P2;Temp;Humidity;BMP_temperature;BMP_pressure;BME280_temperature;BME280_humidity;BME280_pressure;Samples;Min_cycle;Max_cycle;Signal;HPM_P1;HPM_P2
2022/01/13 00:01:41;;;;;;;;;;;11.80;99.60;;;;;;5049230;28;19925;-65
2022/01/13 00:04:10;;;;;;;;;;;11.80;99.50;;;;;;5036149;28;19929;-66
2022/01/13 00:06:35;;;;;;;;;;;11.60;99.40;;;;;;5037832;28;19921;-65
2022/01/13 00:09:01;;;;;;;;;;;11.80;99.40;;;;;;5038525;28;20016;-65
2022/01/13 00:11:27;;;;;;;;;;;11.60;99.30;;;;;;5048384;28;19920;-65
2022/01/13 00:14:20;;;;;;;;;;;11.60;99.30;;;;;;5050471;28;21994;-65
2022/01/13 00:16:42;;;;;;;;;;;11.80;99.30;;;;;;5047257;28;19927;-66
2022/01/13 00:21:47;;;;;;;;;;;11.70;99.20;;;;;;5044620;28;20017;-64
2022/01/13 00:24:13;;;;;;;;;;;11.50;99.10;;;;;;5053036;28;19921;-67
2022/01/13 00:26:40;;;;;;;;;;;11.70;99.10;;;;;;5025662;28;20023;-63
2022/01/13 00:29:06;;;;;;;;;;;11.90;99.20;;;;;;5037611;28;20393;-64
2022/01/13 00:31:33;;;;;;;;;;;12.00;99.20;;;;;;5052631;28;19947;-66
2022/01/13 00:34:00;;;;;;;;;;;;;;;;;;5056485;28;20002;-65
2022/01/13 00:36:26;;;;;;;;;;;12.00;99.10;;;;;;5054838;28;19936;-65
2022/01/13 00:38:52;;;;;;;;;;;12.00;99.10;;;;;;5055803;28;20023;-66
2022/01/13 00:41:17;;;;;;;;;;;11.90;99.10;;;;;;5030763;28;19929;-64
2022/01/13 00:43:46;;;;;;;;;;;11.80;99.00;;;;;;5023139;28;20272;-65
2022/01/13 00:46:19;;;;;;;;;;;;;;;;;;5031710;28;20039;-64
2022/01/13 00:48:45;;;;;;;;;;;11.90;99.00;;;;;;5053739;28;19921;-66
2022/01/13 00:51:10;;;;;;;;;;;;;;;;;;5056770;28;19925;-66
2022/01/13 00:53:36;;;;;;;;;;;11.90;98.90;;;;;;5022244;28;19929;-64
2022/01/13 00:56:02;;;;;;;;;;;11.80;98.90;;;;;;5055572;28;19920;-65
2022/01/13 00:58:28;;;;;;;;;;;11.80;98.90;;;;;;5032501;28;20374;-64
2022/01/13 01:00:54;;;;;;;;;;;11.80;98.90;;;;;;5036408;28;19947;-66
2022/01/13 01:03:20;;;;;;;;;;;;;;;;;;5053429;28;19921;-65
2022/01/13 01:05:45;;;;;;;;;;;11.90;98.90;;;;;;5056120;28;19925;-67
2022/01/13 01:08:12;;;;;;;;;;;11.80;98.90;;;;;;5056078;28;20263;-65
2022/01/13 01:10:38;;;;;;;;;;;11.70;98.80;;;;;;5022803;28;19921;-64
2022/01/13 01:13:11;;;;;;;;;;;11.70;98.80;;;;;;5032563;28;19920;-64
2022/01/13 01:15:38;;;;;;;;;;;11.70;98.80;;;;;;5053295;28;20412;-66
2022/01/13 01:18:13;;;;;;;;;;;11.90;98.90;;;;;;5033915;28;20039;-66
2022/01/13 01:20:49;;;;;;;;;;;12.00;98.90;;;;;;5055207;28;19975;-67
2022/01/13 01:23:19;;;;;;;;;;;11.60;98.80;;;;;;5052291;28;19924;-65
2022/01/13 01:26:00;;;;;;;;;;;11.70;98.80;;;;;;5033462;28;20393;-66
2022/01/13 01:28:36;;;;;;;;;;;11.70;98.80;;;;;;5045741;28;20374;-65
2022/01/13 01:31:01;;;;;;;;;;;11.80;98.80;;;;;;5035928;28;19920;-64
2022/01/13 01:33:27;;;;;;;;;;;12.00;98.80;;;;;;5037074;28;19927;-64
2022/01/13 01:35:54;;;;;;;;;;;11.90;98.80;;;;;;5021681;28;19921;-65
2022/01/13 01:38:21;;;;;;;;;;;11.90;98.80;;;;;;5032525;28;19932;-65
2022/01/13 01:40:46;;;;;;;;;;;11.70;98.80;;;;;;5017969;28;19921;-65
2022/01/13 01:43:12;;;;;;;;;;;11.80;98.80;;;;;;5051130;28;19928;-64
2022/01/13 01:45:44;;;;;;;;;;;11.90;98.80;;;;;;5040729;28;19976;-65
2022/01/13 01:48:10;;;;;;;;;;;12.00;98.80;;;;;;5049302;28;19978;-65
2022/01/13 01:50:37;;;;;;;;;;;11.90;98.80;;;;;;5040882;28;19963;-64
2022/01/13 01:53:03;;;;;;;;;;;11.60;98.70;;;;;;5038074;28;20382;-66
2022/01/13 01:55:29;;;;;;;;;;;11.90;98.80;;;;;;5033089;28;19932;-65
2022/01/13 01:57:55;;;;;;;;;;;11.80;98.80;;;;;;5054185;28;19920;-66
2022/01/13 02:00:21;;;;;;;;;;;11.90;98.80;;;;;;5054055;28;19966;-68
2022/01/13 02:02:47;;;;;;;;;;;11.90;98.70;;;;;;5046416;28;19927;-64
2022/01/13 02:05:12;;;;;;;;;;;11.50;98.70;;;;;;5052277;28;20282;-64
2022/01/13 02:07:38;;;;;;;;;;;11.90;98.80;;;;;;5050594;28;19928;-66
2022/01/13 02:10:04;;;;;;;;;;;11.80;98.80;;;;;;5055449;28;19943;-65
2022/01/13 02:12:41;;;;;;;;;;;12.00;98.80;;;;;;5054737;28;19921;-65
2022/01/13 02:17:39;;;;;;;;;;;11.70;98.70;;;;;;5054676;28;19920;-64
2022/01/13 02:20:05;;;;;;;;;;;11.80;98.70;;;;;;5048734;28;20290;-65
2022/01/13 02:22:30;;;;;;;;;;;11.50;98.70;;;;;;5054130;28;19917;-65
2022/01/13 02:24:56;;;;;;;;;;;11.90;98.80;;;;;;5048571;28;20420;-65
2022/01/13 02:27:22;;;;;;;;;;;11.70;98.70;;;;;;5044470;28;19943;-65
2022/01/13 02:29:48;;;;;;;;;;;11.60;98.70;;;;;;5046347;28;20378;-64
2022/01/13 02:32:13;;;;;;;;;;;11.70;98.70;;;;;;5028817;28;19967;-66
2022/01/13 02:34:39;;;;;;;;;;;11.80;98.80;;;;;;5040608;28;20440;-65
2022/01/13 02:37:04;;;;;;;;;;;11.80;98.60;;;;;;5045475;28;19966;-65
2022/01/13 02:39:30;;;;;;;;;;;11.60;98.70;;;;;;5030899;28;19974;-65
2022/01/13 02:41:56;;;;;;;;;;;11.70;98.70;;;;;;5044350;28;19917;-65
2022/01/13 02:44:24;;;;;;;;;;;11.80;98.80;;;;;;5054041;28;19979;-65
2022/01/13 02:49:16;;;;;;;;;;;11.70;98.70;;;;;;5052663;28;19921;-66
2022/01/13 02:51:42;;;;;;;;;;;11.70;98.70;;;;;;5036298;28;20030;-65
2022/01/13 02:54:08;;;;;;;;;;;11.70;98.80;;;;;;5051707;28;19917;-65
2022/01/13 02:56:34;;;;;;;;;;;12.00;98.80;;;;;;5052809;28;19921;-68
2022/01/13 02:59:00;;;;;;;;;;;11.50;98.60;;;;;;5043012;28;19921;-65
2022/01/13 03:01:25;;;;;;;;;;;11.80;98.70;;;;;;5052885;28;19927;-65
2022/01/13 03:03:51;;;;;;;;;;;11.80;98.60;;;;;;5046929;28;19921;-65
2022/01/13 03:06:20;;;;;;;;;;;11.80;98.70;;;;;;5038884;28;20297;-65
2022/01/13 03:08:46;;;;;;;;;;;11.80;98.70;;;;;;5040363;28;20385;-64
2022/01/13 03:11:13;;;;;;;;;;;11.90;98.80;;;;;;5037563;28;20020;-67
2022/01/13 03:13:39;;;;;;;;;;;11.70;98.70;;;;;;5042433;28;19960;-66
2022/01/13 03:16:05;;;;;;;;;;;11.70;98.70;;;;;;5019175;28;20365;-67
2022/01/13 03:18:31;;;;;;;;;;;11.80;98.70;;;;;;5053679;28;20023;-65
2022/01/13 03:20:56;;;;;;;;;;;11.60;98.70;;;;;;5038973;28;20119;-66
2022/01/13 03:23:22;;;;;;;;;;;11.80;98.70;;;;;;5033956;28;19992;-66
2022/01/13 03:25:48;;;;;;;;;;;11.80;98.70;;;;;;5034884;28;20378;-65
2022/01/13 03:28:17;;;;;;;;;;;11.80;98.70;;;;;;5036691;28;20286;-66
2022/01/13 03:30:46;;;;;;;;;;;11.70;98.70;;;;;;5041677;28;19916;-64
2022/01/13 03:33:12;;;;;;;;;;;11.80;98.70;;;;;;5051763;28;19920;-64
2022/01/13 03:35:38;;;;;;;;;;;11.70;98.70;;;;;;5048509;28;19916;-65
2022/01/13 03:38:04;;;;;;;;;;;11.70;98.70;;;;;;5034148;28;19921;-67
2022/01/13 03:40:31;;;;;;;;;;;11.80;98.70;;;;;;5042800;28;19921;-65
2022/01/13 03:42:57;;;;;;;;;;;11.60;98.70;;;;;;5052295;28;19921;-65
2022/01/13 03:45:23;;;;;;;;;;;11.70;98.70;;;;;;5034838;28;20305;-66
2022/01/13 03:47:49;;;;;;;;;;;;;;;;;;5053039;28;19951;-65
2022/01/13 03:50:15;;;;;;;;;;;11.70;98.70;;;;;;5048581;28;19926;-66
2022/01/13 03:52:43;;;;;;;;;;;11.70;98.70;;;;;;5046365;28;19979;-68
2022/01/13 03:55:28;;;;;;;;;;;11.70;98.70;;;;;;5056950;28;19979;-66
2022/01/13 03:57:59;;;;;;;;;;;11.80;98.80;;;;;;5055937;28;19943;-65
2022/01/13 04:00:25;;;;;;;;;;;11.90;98.70;;;;;;5053888;28;20004;-65
2022/01/13 04:02:50;;;;;;;;;;;11.60;98.70;;;;;;5042244;28;20346;-65
2022/01/13 04:05:16;;;;;;;;;;;11.90;98.80;;;;;;5048438;28;19921;-64
2022/01/13 04:07:41;;;;;;;;;;;11.70;98.80;;;;;;5046989;28;19991;-66
2022/01/13 04:10:29;;;;;;;;;;;11.90;98.90;;;;;;5056094;28;20020;-64
2022/01/13 04:12:55;;;;;;;;;;;12.00;98.90;;;;;;5055986;28;19939;-65
2022/01/13 04:15:23;;;;;;;;;;;;;;;;;;5056699;28;19921;-65
2022/01/13 04:17:48;;;;;;;;;;;11.80;98.90;;;;;;5044925;28;19921;-64
2022/01/13 04:20:14;;;;;;;;;;;11.60;98.80;;;;;;5047008;28;19927;-65
2022/01/13 04:22:41;;;;;;;;;;;11.90;98.90;;;;;;5056923;28;19952;-64
2022/01/13 04:25:07;;;;;;;;;;;11.80;98.90;;;;;;5036889;28;19987;-65
2022/01/13 04:27:37;;;;;;;;;;;11.70;98.80;;;;;;5056033;28;19936;-64
2022/01/13 04:32:40;;;;;;;;;;;11.60;98.50;;;;;;5047679;28;19921;-65
2022/01/13 04:35:06;;;;;;;;;;;11.70;98.80;;;;;;5039123;28;19978;-64
2022/01/13 04:37:32;;;;;;;;;;;11.70;98.90;;;;;;5049560;28;19943;-65
2022/01/13 04:39:58;;;;;;;;;;;;;;;;;;5054320;28;19920;-64
2022/01/13 04:42:26;;;;;;;;;;;11.90;98.70;;;;;;5061288;28;19992;-65
2022/01/13 04:44:52;;;;;;;;;;;11.70;98.70;;;;;;5055407;28;19916;-65
2022/01/13 04:47:17;;;;;;;;;;;11.60;98.70;;;;;;5054951;28;19921;-65
2022/01/13 04:49:43;;;;;;;;;;;12.00;98.80;;;;;;5073862;28;20312;-64
2022/01/13 04:52:09;;;;;;;;;;;11.60;98.70;;;;;;5049580;28;19947;-64
2022/01/13 04:54:34;;;;;;;;;;;11.90;98.80;;;;;;5053247;28;19968;-65
2022/01/13 04:57:14;;;;;;;;;;;11.60;98.50;;;;;;5053696;28;19993;-64
2022/01/13 04:59:40;;;;;;;;;;;11.90;98.90;;;;;;5027821;28;19975;-64
2022/01/13 05:02:06;;;;;;;;;;;11.90;98.80;;;;;;5050201;28;20009;-65
2022/01/13 05:04:32;;;;;;;;;;;11.70;98.80;;;;;;5045249;28;19921;-64
2022/01/13 05:06:57;;;;;;;;;;;12.00;98.90;;;;;;5029575;28;20370;-64
2022/01/13 05:09:23;;;;;;;;;;;11.70;98.80;;;;;;5054658;28;20413;-64
2022/01/13 05:11:49;;;;;;;;;;;11.40;98.70;;;;;;5055045;28;20297;-64
2022/01/13 05:14:14;;;;;;;;;;;11.80;98.50;;;;;;5035639;28;19917;-65
2022/01/13 05:17:02;;;;;;;;;;;11.80;98.80;;;;;;5054965;28;19975;-64
2022/01/13 05:19:35;;;;;;;;;;;11.90;98.80;;;;;;5040290;28;19928;-65
2022/01/13 05:24:26;;;;;;;;;;;11.70;98.80;;;;;;5054885;28;20389;-65
2022/01/13 05:26:52;;;;;;;;;;;;;;;;;;5040329;28;19975;-65
2022/01/13 05:29:20;;;;;;;;;;;12.10;98.80;;;;;;5044506;28;19921;-65
2022/01/13 05:31:46;;;;;;;;;;;;;;;;;;5020571;28;19921;-65
2022/01/13 05:34:12;;;;;;;;;;;11.70;98.70;;;;;;5054968;28;19939;-65
2022/01/13 05:36:37;;;;;;;;;;;11.60;98.70;;;;;;5020454;28;20345;-65
2022/01/13 05:39:03;;;;;;;;;;;11.90;98.80;;;;;;5025234;28;19927;-65
2022/01/13 05:41:31;;;;;;;;;;;11.60;98.70;;;;;;5028756;28;19925;-65
2022/01/13 05:43:57;;;;;;;;;;;11.70;98.80;;;;;;5036018;28;19920;-65
2022/01/13 05:46:23;;;;;;;;;;;;;;;;;;5044499;28;20370;-65
2022/01/13 05:48:49;;;;;;;;;;;;;;;;;;5038159;28;19928;-64
2022/01/13 05:51:14;;;;;;;;;;;11.50;98.60;;;;;;5022584;28;19921;-64
2022/01/13 05:53:40;;;;;;;;;;;;;;;;;;5001166;28;19917;-65
2022/01/13 05:56:06;;;;;;;;;;;11.60;98.70;;;;;;5031254;28;19921;-65
2022/01/13 05:58:32;;;;;;;;;;;11.70;98.70;;;;;;5037577;28;19920;-64
2022/01/13 06:00:58;;;;;;;;;;;;;;;;;;5026052;28;19921;-64
2022/01/13 06:03:24;;;;;;;;;;;11.90;98.80;;;;;;5032654;28;20378;-64
2022/01/13 06:05:50;;;;;;;;;;;;;;;;;;5036672;28;19921;-65
2022/01/13 06:08:15;;;;;;;;;;;11.60;98.70;;;;;;5017333;28;19921;-64
2022/01/13 06:10:44;;;;;;;;;;;11.70;98.70;;;;;;5042545;28;20320;-64
2022/01/13 06:13:10;;;;;;;;;;;11.80;98.80;;;;;;5036969;28;19924;-64
2022/01/13 06:15:37;;;;;;;;;;;11.60;98.70;;;;;;5054046;28;19966;-64
2022/01/13 06:18:03;;;;;;;;;;;11.70;98.80;;;;;;5025502;28;20337;-64
2022/01/13 06:20:28;;;;;;;;;;;11.80;98.80;;;;;;5027303;28;19924;-65
2022/01/13 06:22:54;;;;;;;;;;;11.70;98.70;;;;;;5016132;28;19974;-65
2022/01/13 06:25:20;;;;;;;;;;;11.60;98.70;;;;;;5054132;28;19920;-66
2022/01/13 06:27:45;;;;;;;;;;;11.70;98.70;;;;;;5036717;28;19921;-65
2022/01/13 06:30:14;;;;;;;;;;;11.70;98.80;;;;;;5032512;28;19921;-65
2022/01/13 06:32:40;;;;;;;;;;;11.80;98.80;;;;;;4995083;28;19925;-65
2022/01/13 06:35:05;;;;;;;;;;;11.80;98.80;;;;;;5001428;28;19928;-66
2022/01/13 06:37:31;;;;;;;;;;;11.80;98.90;;;;;;5016478;28;19921;-66
2022/01/13 06:39:57;;;;;;;;;;;11.70;98.80;;;;;;5032576;28;20287;-66
2022/01/13 06:42:22;;;;;;;;;;;11.90;98.90;;;;;;5035114;28;20347;-66
2022/01/13 06:44:48;;;;;;;;;;;11.80;98.80;;;;;;5042564;28;19925;-66
2022/01/13 06:47:14;;;;;;;;;;;11.80;98.80;;;;;;5053776;28;19928;-66
2022/01/13 06:49:39;;;;;;;;;;;11.80;98.80;;;;;;5053282;28;20298;-66
2022/01/13 06:52:05;;;;;;;;;;;11.50;98.70;;;;;;5036267;28;19990;-66
2022/01/13 06:54:31;;;;;;;;;;;11.80;98.80;;;;;;5050127;28;20284;-66
2022/01/13 06:56:57;;;;;;;;;;;11.50;98.70;;;;;;5052751;28;19925;-66
2022/01/13 06:59:23;;;;;;;;;;;11.70;98.80;;;;;;5052306;28;19924;-66
2022/01/13 07:01:48;;;;;;;;;;;11.70;98.80;;;;;;5051916;28;20021;-67
2022/01/13 07:04:15;;;;;;;;;;;11.70;98.70;;;;;;5050931;28;19920;-60
2022/01/13 07:06:41;;;;;;;;;;;11.90;98.50;;;;;;5045400;28;20359;-60
2022/01/13 07:09:08;;;;;;;;;;;11.90;98.80;;;;;;5036391;28;20006;-61
2022/01/13 07:11:33;;;;;;;;;;;11.70;98.70;;;;;;5048599;28;19931;-61
2022/01/13 07:13:59;;;;;;;;;;;11.80;98.80;;;;;;5053778;28;19917;-61
2022/01/13 07:16:25;;;;;;;;;;;11.80;98.80;;;;;;5036225;28;19921;-66
2022/01/13 07:18:50;;;;;;;;;;;11.70;98.80;;;;;;5023160;28;19925;-67
2022/01/13 07:21:17;;;;;;;;;;;11.80;98.50;;;;;;5047711;28;19977;-66
2022/01/13 07:23:43;;;;;;;;;;;;;;;;;;5036349;28;19975;-67
2022/01/13 07:26:09;;;;;;;;;;;11.80;98.50;;;;;;5050055;28;19928;-67
2022/01/13 07:28:34;;;;;;;;;;;11.70;98.80;;;;;;5039768;28;20015;-67
2022/01/13 07:31:00;;;;;;;;;;;;;;;;;;5053118;28;20127;-66
2022/01/13 07:33:27;;;;;;;;;;;11.90;98.90;;;;;;5051811;28;19921;-67
2022/01/13 07:35:53;;;;;;;;;;;;;;;;;;5045856;28;20015;-67
2022/01/13 07:38:19;;;;;;;;;;;;;;;;;;5044678;28;20366;-67
2022/01/13 07:40:45;;;;;;;;;;;11.70;98.80;;;;;;5015850;28;20371;-66
2022/01/13 07:43:11;;;;;;;;;;;11.80;98.80;;;;;;5050228;28;19929;-67
2022/01/13 07:45:36;;;;;;;;;;;11.90;98.50;;;;;;5047801;28;19964;-66
2022/01/13 07:48:02;;;;;;;;;;;11.90;98.90;;;;;;5038477;28;19921;-66
2022/01/13 07:50:28;;;;;;;;;;;;;;;;;;5033634;28;19974;-67
2022/01/13 07:52:54;;;;;;;;;;;11.80;98.80;;;;;;5061073;28;19973;-67
2022/01/13 07:55:19;;;;;;;;;;;11.70;98.90;;;;;;5051882;28;19920;-66
2022/01/13 07:57:45;;;;;;;;;;;11.60;98.60;;;;;;5051165;28;20015;-63
2022/01/13 08:00:11;;;;;;;;;;;12.20;98.80;;;;;;5050582;28;19927;-63
2022/01/13 08:02:37;;;;;;;;;;;;;;;;;;5028119;28;19921;-64
2022/01/13 08:05:03;;;;;;;;;;;11.90;98.80;;;;;;5055512;28;20380;-63
2022/01/13 08:07:29;;;;;;;;;;;11.80;98.80;;;;;;5045051;28;19976;-64
2022/01/13 08:09:55;;;;;;;;;;;;;;;;;;5033142;28;19917;-65
2022/01/13 08:12:21;;;;;;;;;;;12.10;98.80;;;;;;5051949;28;19920;-64
2022/01/13 08:14:47;;;;;;;;;;;12.10;98.70;;;;;;5053056;28;20453;-64
2022/01/13 08:19:45;;;;;;;;;;;12.00;98.70;;;;;;5034697;28;19921;-64
2022/01/13 08:19:59;;;;;;;;;;;;;;;;;;5033040;28;20379;-64
2022/01/13 08:22:25;;;;;;;;;;;12.00;98.60;;;;;;5039844;28;19921;-64
2022/01/13 08:24:50;;;;;;;;;;;12.20;98.70;;;;;;5040996;28;19982;-65
2022/01/13 08:27:16;;;;;;;;;;;12.00;98.70;;;;;;5034743;28;19921;-64
2022/01/13 08:29:42;;;;;;;;;;;12.20;98.80;;;;;;5033171;28;19921;-64
2022/01/13 08:32:08;;;;;;;;;;;;;;;;;;5033675;28;21011;-67
2022/01/13 08:34:33;;;;;;;;;;;12.10;98.70;;;;;;5021135;28;19928;-63
2022/01/13 08:36:59;;;;;;;;;;;12.20;98.70;;;;;;5040314;28;19921;-64
2022/01/13 08:39:25;;;;;;;;;;;12.00;98.80;;;;;;5039018;28;19995;-63
2022/01/13 08:41:51;;;;;;;;;;;12.10;98.80;;;;;;5056223;28;19936;-65
2022/01/13 08:44:16;;;;;;;;;;;12.10;98.70;;;;;;5054736;28;19967;-64
2022/01/13 08:46:42;;;;;;;;;;;11.90;98.70;;;;;;5056145;28;20383;-64
2022/01/13 08:49:09;;;;;;;;;;;12.00;98.70;;;;;;5055065;28;19946;-64
2022/01/13 08:51:35;;;;;;;;;;;12.20;98.70;;;;;;5035875;28;19927;-64
2022/01/13 08:54:01;;;;;;;;;;;12.20;98.70;;;;;;5036648;28;19921;-63
2022/01/13 08:56:26;;;;;;;;;;;12.00;98.60;;;;;;5036144;28;19971;-64
2022/01/13 08:58:52;;;;;;;;;;;11.90;98.60;;;;;;5036431;28;19921;-64
2022/01/13 09:01:21;;;;;;;;;;;12.30;98.70;;;;;;5036209;28;19972;-66
2022/01/13 09:03:47;;;;;;;;;;;;;;;;;;5037247;28;19940;-68
2022/01/13 09:06:12;;;;;;;;;;;12.10;98.60;;;;;;5054374;28;20336;-65
2022/01/13 09:08:38;;;;;;;;;;;12.00;98.60;;;;;;5055884;28;19994;-65
2022/01/13 09:11:04;;;;;;;;;;;12.10;98.70;;;;;;5056201;28;19921;-66
2022/01/13 09:13:35;;;;;;;;;;;12.20;98.70;;;;;;5055935;28;19920;-65
2022/01/13 09:16:01;;;;;;;;;;;;;;;;;;5047045;28;19928;-65
2022/01/13 09:18:47;;;;;;;;;;;12.00;98.60;;;;;;5054148;28;19924;-62
2022/01/13 09:21:13;;;;;;;;;;;;;;;;;;5055653;28;20389;-60
2022/01/13 09:23:39;;;;;;;;;;;12.20;98.70;;;;;;5055107;28;19928;-61
2022/01/13 09:26:05;;;;;;;;;;;11.80;98.60;;;;;;5054741;28;19921;-61
2022/01/13 09:28:30;;;;;;;;;;;12.00;98.60;;;;;;5054022;28;19973;-65
2022/01/13 09:30:56;;;;;;;;;;;12.00;98.70;;;;;;5055837;28;20294;-65
2022/01/13 09:33:21;;;;;;;;;;;11.80;98.60;;;;;;5055499;28;19965;-65
2022/01/13 09:35:47;;;;;;;;;;;;;;;;;;5055395;28;19927;-67
2022/01/13 09:38:13;;;;;;;;;;;12.10;98.70;;;;;;5045868;28;19952;-66
2022/01/13 09:40:42;;;;;;;;;;;12.00;98.70;;;;;;5043415;28;19928;-65
2022/01/13 09:43:08;;;;;;;;;;;12.00;98.60;;;;;;5055311;28;19921;-65
2022/01/13 09:45:34;;;;;;;;;;;12.20;98.70;;;;;;5055385;28;19929;-62
2022/01/13 09:47:59;;;;;;;;;;;12.10;98.70;;;;;;5058857;28;19927;-62
2022/01/13 09:50:25;;;;;;;;;;;;;;;;;;5060549;28;19928;-62
2022/01/13 09:52:51;;;;;;;;;;;12.00;98.60;;;;;;5047928;28;19931;-63
2022/01/13 09:55:17;;;;;;;;;;;12.20;98.70;;;;;;5050935;28;20022;-66
2022/01/13 09:57:43;;;;;;;;;;;;;;;;;;5044163;28;19921;-66
2022/01/13 10:00:09;;;;;;;;;;;;;;;;;;5047163;28;19925;-61
2022/01/13 10:02:34;;;;;;;;;;;11.80;98.80;;;;;;5054949;28;19917;-61
2022/01/13 10:05:00;;;;;;;;;;;12.10;98.90;;;;;;5057273;28;20015;-61
2022/01/13 10:07:36;;;;;;;;;;;12.20;98.90;;;;;;5051983;28;19924;-64
2022/01/13 10:10:06;;;;;;;;;;;12.00;98.80;;;;;;5064153;28;19917;-64
2022/01/13 10:12:40;;;;;;;;;;;;;;;;;;5060031;28;19921;-61
2022/01/13 10:17:32;;;;;;;;;;;12.20;98.80;;;;;;5034447;28;19974;-62
2022/01/13 10:19:58;;;;;;;;;;;12.20;98.80;;;;;;5027288;28;19938;-62
2022/01/13 10:22:24;;;;;;;;;;;;;;;;;;5036304;28;20019;-67
2022/01/13 10:24:52;;;;;;;;;;;12.30;98.80;;;;;;5036561;28;20000;-62
2022/01/13 10:27:21;;;;;;;;;;;12.20;98.70;;;;;;5054409;28;20074;-61
2022/01/13 10:29:47;;;;;;;;;;;12.10;98.70;;;;;;5051399;28;19921;-61
2022/01/13 10:32:13;;;;;;;;;;;;;;;;;;5034562;28;19921;-62
2022/01/13 10:34:39;;;;;;;;;;;12.10;98.70;;;;;;5034681;28;19928;-66
2022/01/13 10:37:14;;;;;;;;;;;12.00;98.50;;;;;;5035429;28;19921;-65
2022/01/13 10:39:49;;;;;;;;;;;12.50;98.80;;;;;;5054405;28;19920;-66
2022/01/13 10:45:03;;;;;;;;;;;12.20;98.70;;;;;;5054465;28;19920;-63
2022/01/13 10:47:32;;;;;;;;;;;;;;;;;;5054223;28;19916;-63
2022/01/13 10:50:02;;;;;;;;;;;12.30;98.70;;;;;;5037317;28;19925;-63
2022/01/13 10:52:28;;;;;;;;;;;12.30;98.70;;;;;;5046784;28;20302;-63
2022/01/13 10:54:54;;;;;;;;;;;12.50;98.70;;;;;;5054205;28;19921;-63
2022/01/13 10:57:21;;;;;;;;;;;12.40;98.70;;;;;;5054008;28;20321;-63
2022/01/13 10:59:46;;;;;;;;;;;12.20;98.70;;;;;;5053224;28;19967;-63
2022/01/13 11:02:12;;;;;;;;;;;12.30;98.70;;;;;;5036651;28;19921;-64
2022/01/13 11:04:38;;;;;;;;;;;12.30;98.70;;;;;;5072961;28;19931;-62
2022/01/13 11:07:13;;;;;;;;;;;12.30;98.70;;;;;;5038279;28;20486;-63
2022/01/13 11:09:42;;;;;;;;;;;12.50;98.80;;;;;;5033972;28;19975;-62
2022/01/13 11:12:12;;;;;;;;;;;12.40;98.70;;;;;;5033869;28;19936;-62
2022/01/13 11:14:42;;;;;;;;;;;12.30;98.70;;;;;;5053341;28;19939;-63
2022/01/13 11:17:11;;;;;;;;;;;12.50;98.70;;;;;;5053766;28;20324;-63
2022/01/13 11:19:41;;;;;;;;;;;12.10;98.50;;;;;;5053523;28;20019;-62
2022/01/13 11:22:07;;;;;;;;;;;;;;;;;;5052212;28;19924;-64
2022/01/13 11:24:33;;;;;;;;;;;12.50;98.60;;;;;;5045367;28;19920;-63
2022/01/13 11:26:59;;;;;;;;;;;;;;;;;;5035198;28;20271;-63
2022/01/13 11:29:25;;;;;;;;;;;;;;;;;;5052643;28;19932;-66
2022/01/13 11:31:51;;;;;;;;;;;12.40;98.70;;;;;;5053468;28;19920;-65
2022/01/13 11:34:17;;;;;;;;;;;12.30;98.60;;;;;;5034617;28;20507;-63
2022/01/13 11:36:42;;;;;;;;;;;12.50;98.70;;;;;;5035209;28;19927;-64
2022/01/13 11:39:08;;;;;;;;;;;12.60;98.80;;;;;;5034113;28;20041;-66
2022/01/13 11:41:34;;;;;;;;;;;12.40;98.70;;;;;;5052174;28;20282;-66
2022/01/13 11:44:12;;;;;;;;;;;12.50;98.80;;;;;;5035540;28;20389;-65
2022/01/13 11:46:44;;;;;;;;;;;12.20;98.70;;;;;;5052669;28;19924;-66
2022/01/13 11:49:16;;;;;;;;;;;12.60;98.80;;;;;;5028428;28;19967;-66
2022/01/13 11:51:43;;;;;;;;;;;12.40;98.70;;;;;;5033725;28;19944;-66
2022/01/13 11:54:10;;;;;;;;;;;;;;;;;;5033476;28;19921;-61
2022/01/13 11:56:35;;;;;;;;;;;12.40;98.70;;;;;;5016979;28;19947;-66
2022/01/13 11:59:01;;;;;;;;;;;12.70;98.80;;;;;;5033280;28;19921;-66
2022/01/13 12:01:30;;;;;;;;;;;12.40;98.70;;;;;;5015410;28;20274;-65
2022/01/13 12:03:57;;;;;;;;;;;12.20;98.60;;;;;;5048447;28;19927;-65
2022/01/13 12:06:40;;;;;;;;;;;12.40;98.70;;;;;;5050976;28;19928;-65
2022/01/13 12:09:07;;;;;;;;;;;12.40;98.70;;;;;;5060848;28;20376;-66
2022/01/13 12:11:33;;;;;;;;;;;;;;;;;;5067237;28;19999;-66
2022/01/13 12:13:58;;;;;;;;;;;12.20;98.60;;;;;;5062644;28;19931;-62
2022/01/13 12:16:43;;;;;;;;;;;12.20;98.60;;;;;;5064562;28;19924;-68
2022/01/13 12:19:13;;;;;;;;;;;12.40;98.60;;;;;;5064231;28;20032;-68
2022/01/13 12:21:43;;;;;;;;;;;12.30;98.60;;;;;;5063026;28;20329;-67
2022/01/13 12:24:09;;;;;;;;;;;12.20;98.30;;;;;;5062508;28;19924;-67
2022/01/13 12:26:35;;;;;;;;;;;12.50;98.70;;;;;;5055465;28;19967;-67
2022/01/13 12:29:19;;;;;;;;;;;12.40;98.60;;;;;;5044164;28;20382;-64
2022/01/13 12:31:56;;;;;;;;;;;12.50;98.70;;;;;;5046796;28;19921;-64
2022/01/13 12:34:23;;;;;;;;;;;12.50;98.70;;;;;;5037806;28;19928;-64
2022/01/13 12:36:48;;;;;;;;;;;12.30;98.70;;;;;;5043136;28;19939;-63
2022/01/13 12:39:14;;;;;;;;;;;;;;;;;;5036996;28;20015;-64
2022/01/13 12:41:56;;;;;;;;;;;12.60;98.80;;;;;;5054953;28;19925;-65
2022/01/13 12:45:28;;;;;;;;;;;12.40;98.70;;;;;;5041445;28;19921;-66
2022/01/13 12:47:07;;;;;;;;;;;;;;;;;;5051914;28;19921;-67
2022/01/13 12:49:33;;;;;;;;;;;12.50;98.80;;;;;;5036000;28;19931;-65
2022/01/13 12:51:59;;;;;;;;;;;12.70;98.80;;;;;;5018795;28;19925;-67
2022/01/13 12:54:24;;;;;;;;;;;12.10;98.70;;;;;;5030084;28;19924;-66
2022/01/13 12:56:50;;;;;;;;;;;12.60;98.80;;;;;;5039076;28;20394;-65
2022/01/13 12:59:15;;;;;;;;;;;12.60;98.80;;;;;;5035792;28;19983;-66
2022/01/13 13:01:41;;;;;;;;;;;12.30;98.70;;;;;;5043456;28;20015;-66
2022/01/13 13:04:10;;;;;;;;;;;12.40;98.80;;;;;;5042723;28;20329;-65
2022/01/13 13:06:37;;;;;;;;;;;12.50;98.90;;;;;;5053030;28;19924;-66
2022/01/13 13:09:04;;;;;;;;;;;12.50;98.90;;;;;;5040522;28;19979;-67
2022/01/13 13:11:30;;;;;;;;;;;;;;;;;;5035738;28;19921;-66
2022/01/13 13:13:57;;;;;;;;;;;12.30;98.90;;;;;;5036130;28;19921;-65
2022/01/13 13:16:23;;;;;;;;;;;12.70;99.00;;;;;;5022046;28;19924;-65
2022/01/13 13:18:49;;;;;;;;;;;12.30;99.00;;;;;;5056042;28;19931;-67
2022/01/13 13:21:15;;;;;;;;;;;12.50;99.00;;;;;;5052037;28;19925;-65
2022/01/13 13:23:41;;;;;;;;;;;12.50;99.10;;;;;;5035515;28;20012;-65
2022/01/13 13:26:13;;;;;;;;;;;12.60;99.00;;;;;;5040330;28;19921;-65
2022/01/13 13:28:43;;;;;;;;;;;12.50;99.00;;;;;;5055747;28;19921;-65
2022/01/13 13:31:09;;;;;;;;;;;;;;;;;;5055465;28;19927;-68
2022/01/13 13:33:36;;;;;;;;;;;12.70;99.00;;;;;;5055348;28;19920;-67
2022/01/13 13:36:03;;;;;;;;;;;12.40;98.90;;;;;;5057981;28;19916;-61
2022/01/13 13:38:28;;;;;;;;;;;12.60;98.90;;;;;;5053431;28;19936;-61
2022/01/13 13:40:54;;;;;;;;;;;12.40;98.90;;;;;;5055453;28;19920;-61
2022/01/13 13:43:20;;;;;;;;;;;;;;;;;;5053938;28;20003;-65
2022/01/13 13:45:45;;;;;;;;;;;12.70;99.00;;;;;;5055433;28;19921;-62
2022/01/13 13:48:12;;;;;;;;;;;;;;;;;;5055472;28;20324;-67
2022/01/13 13:50:37;;;;;;;;;;;12.50;98.90;;;;;;5055263;28;19928;-65
2022/01/13 13:53:11;;;;;;;;;;;12.60;98.90;;;;;;5045581;28;20362;-65
2022/01/13 13:55:38;;;;;;;;;;;12.20;98.80;;;;;;5035865;28;19921;-66
2022/01/13 13:58:04;;;;;;;;;;;12.40;98.90;;;;;;5035249;28;19921;-68
2022/01/13 14:00:30;;;;;;;;;;;12.60;98.90;;;;;;5034814;28;20312;-70
2022/01/13 14:02:57;;;;;;;;;;;12.60;99.00;;;;;;5038291;28;20011;-70
2022/01/13 14:05:27;;;;;;;;;;;12.50;99.00;;;;;;5036478;28;19967;-71
2022/01/13 14:07:52;;;;;;;;;;;12.40;98.90;;;;;;5034267;28;19921;-64
2022/01/13 14:10:19;;;;;;;;;;;12.90;98.80;;;;;;5062967;28;20003;-68
2022/01/13 14:12:45;;;;;;;;;;;;;;;;;;5060650;28;19921;-65
2022/01/13 14:15:11;;;;;;;;;;;12.50;98.60;;;;;;5053197;28;20015;-64
2022/01/13 14:17:37;;;;;;;;;;;12.90;98.90;;;;;;5050284;28;20344;-66
2022/01/13 14:20:06;;;;;;;;;;;12.40;98.80;;;;;;5046158;28;19921;-68
2022/01/13 14:22:32;;;;;;;;;;;12.60;98.80;;;;;;5064850;28;19924;-68
2022/01/13 14:24:58;;;;;;;;;;;12.60;98.90;;;;;;5060219;28;20450;-70
2022/01/13 14:27:24;;;;;;;;;;;12.30;98.80;;;;;;5059973;28;20297;-70
2022/01/13 14:29:50;;;;;;;;;;;12.60;98.90;;;;;;5061715;28;19995;-66
2022/01/13 14:32:16;;;;;;;;;;;;;;;;;;5063799;28;19920;-63
2022/01/13 14:34:42;;;;;;;;;;;12.60;98.90;;;;;;5061933;28;19920;-62
2022/01/13 14:37:09;;;;;;;;;;;12.50;98.90;;;;;;5062205;28;20300;-63
2022/01/13 14:39:34;;;;;;;;;;;12.50;98.90;;;;;;5063181;28;19920;-60
2022/01/13 14:42:00;;;;;;;;;;;12.60;98.90;;;;;;5045810;28;19963;-63
2022/01/13 14:44:26;;;;;;;;;;;12.40;98.90;;;;;;5062943;28;19920;-61
2022/01/13 14:46:52;;;;;;;;;;;12.50;98.60;;;;;;5061168;28;19927;-60
2022/01/13 14:49:18;;;;;;;;;;;12.30;98.50;;;;;;5046340;28;19920;-65
2022/01/13 14:51:45;;;;;;;;;;;12.50;98.90;;;;;;5064081;28;20275;-65